Portada
METAR-TAF:

METAR-TAF

Aeropuertos :

Base Aérea de Almagro

Almagro, España

latitud: 38-57-11N, longitud: 3-44-29W, altitud: 629 m

Observación

El informe se hizo hace 4 horas y 16 minutos, a las 22:00 UTC
Viento 5 kt del noreste, variando entre norte y este
Temperatura 7°C
Humedad 93%
Presión 1022 hPa
Visibilidad 10 km o más
sin nubes por debajo de 1500 m y sin presencia de cumulonimbus.

METAR: LEAO 012200Z 05005KT 350V100 CAVOK 07/06 Q1022

Hora: 03:16 (02:16 UTC)

Pronóstico

El informe se hizo hace 6 horas y 16 minutos, a las 20:00 UTC
Pronóstico válido del 01 a las 21 UTC al 02 a las 21 UTC
Viento 6 kt del este-noreste
Visibilidad 10 km o más
Escasas nubes a una altura de 4000 ft
Probabilidad 40%
del 02 a las 12 UTC al 02 a las 19 UTC
Escasas nubes a una altura de 3000 ft, Cumulus congestus.

TAF: LEAO 012000Z 0121/0221 06006KT 9999 FEW040 TX16/0215Z TN04/0206Z PROB40 0212/0219 FEW030TCU

Observaciones y pronósticos meteorológicos de más de 4000 aeropuertos (mensajes METAR y TAF).

Los puntos amarillos y rojos representan las estaciones disponibles.

Ponga el ratón en el punto deseado para ver el nombre de la estación.

Haga clic para ver las observaciones y los pronósticos meteorológicos.

Para cambiar el mapa : haga clic en los botones verdes con una cruz de color negro para hacer un zoom, en el botón verde con un guión para alejar o en las flechas verdes para mapas adyacentes.


METAR-TAF: